Time;durP1;ratioP1;P1;durP2;ratioP2;P2;SDS_P1;SDS_P2;PMS_P1;PMS_P2;Temp;Humidity;BMP_temperature;BMP_pressure;BME280_temperature;BME280_humidity;BME280_pressure;Samples;Min_cycle;Max_cycle;Signal;HPM_P1;HPM_P2
2021/12/09 00:00:43;;;;;;;13.10;6.23;;;2.40;1.00;;;;;;5079003;28;20464;-62
2021/12/09 00:03:11;;;;;;;9.63;5.53;;;2.40;35.10;;;;;;5077398;28;20468;-62
2021/12/09 00:05:42;;;;;;;10.37;5.50;;;2.40;99.90;;;;;;5078463;28;20473;-61
2021/12/09 00:08:17;;;;;;;8.87;5.90;;;2.40;99.90;;;;;;5077931;28;20787;-62
2021/12/09 00:10:44;;;;;;;7.93;5.37;;;2.30;66.60;;;;;;5077405;28;20942;-62
2021/12/09 00:13:11;;;;;;;11.00;5.53;;;2.30;99.90;;;;;;5074752;28;20895;-61
2021/12/09 00:15:38;;;;;;;11.27;5.80;;;2.30;99.90;;;;;;5077607;28;20523;-61
2021/12/09 00:18:05;;;;;;;10.20;5.90;;;2.20;99.90;;;;;;5078354;28;20500;-62
2021/12/09 00:20:33;;;;;;;9.77;5.23;;;2.00;99.90;;;;;;5078539;28;20899;-62
2021/12/09 00:23:01;;;;;;;10.17;5.90;;;2.00;1.00;;;;;;5077229;28;20497;-58
2021/12/09 00:25:29;;;;;;;10.97;5.17;;;2.00;99.90;;;;;;5078266;28;20461;-62
2021/12/09 00:27:56;;;;;;;7.93;5.60;;;2.00;99.90;;;;;;5078238;28;20493;-60
2021/12/09 00:30:23;;;;;;;11.77;6.90;;;1.90;1.00;;;;;;5077927;28;20485;-61
2021/12/09 00:32:53;;;;;;;11.30;6.20;;;1.80;1.00;;;;;;5078067;28;20538;-61
2021/12/09 00:35:29;;;;;;;12.43;6.20;;;1.90;1.00;;;;;;5059697;28;20454;-61
2021/12/09 00:38:00;;;;;;;9.47;5.97;;;1.90;65.80;;;;;;5077869;28;20461;-58
2021/12/09 00:40:31;;;;;;;30.67;11.40;;;2.00;19.90;;;;;;5078092;28;20560;-61
2021/12/09 00:43:02;;;;;;;14.27;8.20;;;1.90;1.00;;;;;;5077512;28;20440;-58
2021/12/09 00:45:29;;;;;;;13.23;6.80;;;2.00;1.00;;;;;;5078416;28;20962;-61
2021/12/09 00:47:56;;;;;;;11.40;6.63;;;2.00;1.00;;;;;;5077426;28;20454;-61
2021/12/09 00:50:23;;;;;;;9.70;5.93;;;2.00;1.00;;;;;;5078208;28;20489;-59
2021/12/09 00:52:51;;;;;;;10.57;6.00;;;2.00;99.90;;;;;;5057920;28;20528;-62
2021/12/09 00:55:21;;;;;;;17.77;6.20;;;2.00;1.00;;;;;;5075046;28;20522;-62
2021/12/09 00:57:49;;;;;;;17.50;8.53;;;2.00;99.90;;;;;;5077655;28;20507;-61
2021/12/09 01:00:20;;;;;;;10.97;6.73;;;1.90;12.60;;;;;;5078214;28;20458;-61
2021/12/09 01:02:47;;;;;;;16.10;7.90;;;1.80;99.90;;;;;;5077568;28;20469;-61
2021/12/09 01:05:15;;;;;;;18.10;7.97;;;1.80;1.00;;;;;;5077526;28;20534;-62
2021/12/09 01:07:43;;;;;;;8.87;5.50;;;1.70;1.00;;;;;;5077258;28;20468;-62
2021/12/09 01:10:15;;;;;;;7.90;5.97;;;1.70;99.90;;;;;;5077845;28;20481;-60
2021/12/09 01:12:43;;;;;;;7.90;6.00;;;1.70;1.00;;;;;;5077668;28;20625;-59
2021/12/09 01:15:14;;;;;;;8.03;5.20;;;1.70;99.90;;;;;;5077443;28;20522;-61
2021/12/09 01:17:42;;;;;;;14.47;7.87;;;1.80;99.90;;;;;;5076750;28;20539;-61
2021/12/09 01:20:15;;;;;;;9.00;5.90;;;1.80;99.90;;;;;;5077279;28;20457;-60
2021/12/09 01:22:46;;;;;;;7.20;5.30;;;1.70;99.90;;;;;;5077234;28;20469;-61
2021/12/09 01:25:16;;;;;;;14.30;7.20;;;1.60;99.90;;;;;;5075849;28;20477;-60
2021/12/09 01:27:45;;;;;;;14.90;5.90;;;1.60;99.90;;;;;;5077432;28;20523;-59
2021/12/09 01:30:18;;;;;;;10.23;5.97;;;1.60;1.00;;;;;;5077568;28;20497;-59
2021/12/09 01:32:51;;;;;;;10.60;5.70;;;1.50;1.00;;;;;;5076006;28;20515;-61
2021/12/09 01:35:21;;;;;;;13.77;6.07;;;1.60;1.00;;;;;;5076486;28;20472;-62
2021/12/09 01:37:53;;;;;;;14.13;6.67;;;1.60;1.00;;;;;;5077896;28;20461;-62
2021/12/09 01:40:23;;;;;;;10.20;6.03;;;1.50;1.00;;;;;;5077554;28;20468;-61
2021/12/09 01:42:51;;;;;;;7.53;6.00;;;1.60;1.00;;;;;;5076102;28;20552;-62
2021/12/09 01:45:19;;;;;;;11.23;5.80;;;1.50;1.00;;;;;;5076312;28;20477;-61
2021/12/09 01:47:48;;;;;;;8.53;5.70;;;1.40;1.00;;;;;;5076511;28;20600;-59
2021/12/09 01:50:16;;;;;;;9.63;6.63;;;1.50;1.00;;;;;;5074557;28;20846;-59
2021/12/09 01:52:44;;;;;;;8.30;6.23;;;1.50;1.00;;;;;;5076243;28;20526;-59
2021/12/09 01:55:14;;;;;;;14.33;6.37;;;1.40;1.00;;;;;;5075938;28;20523;-58
2021/12/09 01:57:41;;;;;;;13.13;6.37;;;1.40;1.00;;;;;;5076158;28;20464;-61
2021/12/09 02:00:13;;;;;;;7.63;5.30;;;1.40;1.00;;;;;;5076967;28;20507;-61
2021/12/09 02:02:42;;;;;;;6.30;5.60;;;1.30;6.70;;;;;;5076548;28;20464;-60
2021/12/09 02:05:11;;;;;;;15.97;7.03;;;1.30;51.50;;;;;;5076848;28;20530;-57
2021/12/09 02:07:40;;;;;;;9.83;6.23;;;1.30;89.30;;;;;;5076480;28;20469;-61
2021/12/09 02:10:11;;;;;;;8.80;6.43;;;1.20;98.30;;;;;;5076524;28;20485;-60
2021/12/09 02:12:38;;;;;;;18.67;6.43;;;1.20;96.30;;;;;;5077500;28;20749;-62
2021/12/09 02:15:06;;;;;;;7.83;5.90;;;1.20;99.90;;;;;;5075843;28;20767;-62
2021/12/09 02:17:34;;;;;;;9.67;5.20;;;1.20;99.90;;;;;;5077049;28;20953;-62
2021/12/09 02:20:48;;;;;;;12.43;5.53;;;1.10;59.50;;;;;;5076349;28;20464;-62
2021/12/09 02:23:17;;;;;;;10.00;6.57;;;1.00;32.80;;;;;;5076817;28;20904;-59
2021/12/09 02:25:45;;;;;;;8.93;6.57;;;1.10;99.90;;;;;;5075553;28;20594;-61
2021/12/09 02:28:13;;;;;;;10.00;6.67;;;1.00;99.90;;;;;;5077064;28;20558;-61
2021/12/09 02:30:40;;;;;;;12.10;6.43;;;1.00;99.90;;;;;;5076343;28;20488;-62
2021/12/09 02:33:07;;;;;;;8.30;5.60;;;1.00;99.90;;;;;;5076686;28;20938;-62
2021/12/09 02:35:34;;;;;;;14.40;6.20;;;1.10;99.90;;;;;;5076375;28;20930;-62
2021/12/09 02:38:01;;;;;;;9.97;5.80;;;1.10;99.90;;;;;;5076330;28;20465;-60
2021/12/09 02:40:33;;;;;;;17.00;6.83;;;1.10;99.90;;;;;;5076882;28;20464;-62
2021/12/09 02:43:00;;;;;;;9.73;6.13;;;1.10;99.90;;;;;;5076071;28;20924;-61
2021/12/09 02:45:27;;;;;;;9.37;6.20;;;1.00;99.90;;;;;;5077247;28;20594;-61
2021/12/09 02:47:54;;;;;;;12.00;6.07;;;1.00;99.90;;;;;;5083216;28;20460;-61
2021/12/09 02:50:21;;;;;;;6.07;5.33;;;0.90;99.90;;;;;;5092698;28;20520;-61
2021/12/09 02:52:48;;;;;;;10.70;6.37;;;0.80;99.90;;;;;;5080016;28;20498;-61
2021/12/09 02:55:16;;;;;;;9.67;6.20;;;0.90;99.90;;;;;;5080477;28;20469;-56
2021/12/09 02:57:44;;;;;;;9.97;7.10;;;0.90;99.90;;;;;;5079737;28;20584;-60
2021/12/09 03:00:12;;;;;;;15.93;6.67;;;0.80;99.90;;;;;;5079916;28;20500;-60
2021/12/09 03:02:43;;;;;;;10.30;6.67;;;0.80;99.90;;;;;;5080587;28;20468;-60
2021/12/09 03:05:10;;;;;;;12.40;5.90;;;0.80;99.90;;;;;;5079458;28;20484;-60
2021/12/09 03:07:41;;;;;;;12.33;6.80;;;0.80;99.90;;;;;;5079731;28;20461;-61
2021/12/09 03:10:18;;;;;;;10.70;6.10;;;0.80;99.90;;;;;;5079898;28;20485;-60
2021/12/09 03:12:49;;;;;;;13.17;6.30;;;0.60;99.90;;;;;;5080133;28;20482;-60
2021/12/09 03:15:16;;;;;;;8.70;6.17;;;0.40;99.90;;;;;;5079525;28;20518;-59
2021/12/09 03:17:44;;;;;;;8.10;6.30;;;0.50;99.90;;;;;;5079628;28;20904;-59
2021/12/09 03:20:15;;;;;;;18.43;6.60;;;0.50;99.90;;;;;;5079822;28;20815;-60
2021/12/09 03:22:43;;;;;;;10.33;6.43;;;0.50;99.90;;;;;;5079067;28;20905;-57
2021/12/09 03:25:14;;;;;;;9.03;6.10;;;0.60;99.90;;;;;;5079641;28;20495;-60
2021/12/09 03:27:42;;;;;;;12.27;7.30;;;0.60;99.90;;;;;;5079884;28;20463;-60
2021/12/09 03:30:14;;;;;;;12.63;7.63;;;0.60;99.90;;;;;;5079131;28;20502;-59
2021/12/09 03:32:41;;;;;;;11.10;7.07;;;0.60;99.90;;;;;;5079140;28;20469;-60
2021/12/09 03:35:11;;;;;;;12.90;7.07;;;0.70;99.90;;;;;;5079904;28;20465;-61
2021/12/09 03:37:39;;;;;;;11.30;6.33;;;0.60;99.90;;;;;;5079510;28;20467;-61
2021/12/09 03:40:11;;;;;;;12.20;6.20;;;0.60;99.90;;;;;;5079352;28;20567;-61
2021/12/09 03:42:39;;;;;;;14.17;6.77;;;0.50;99.90;;;;;;5079013;28;20464;-61
2021/12/09 03:45:07;;;;;;;11.90;6.73;;;0.50;99.90;;;;;;5079217;28;20875;-61
2021/12/09 03:47:37;;;;;;;9.00;6.70;;;0.50;99.90;;;;;;5080617;28;20558;-61
2021/12/09 03:50:08;;;;;;;10.20;6.87;;;0.50;99.90;;;;;;5078932;28;20500;-61
2021/12/09 03:52:35;;;;;;;10.93;7.43;;;0.50;99.90;;;;;;5079350;28;20468;-60
2021/12/09 03:55:05;;;;;;;13.33;6.30;;;0.50;99.90;;;;;;5079217;28;20521;-59
2021/12/09 03:57:32;;;;;;;10.80;6.87;;;0.50;99.90;;;;;;5077631;28;20448;-60
2021/12/09 03:59:59;;;;;;;13.77;6.97;;;0.50;99.90;;;;;;5078941;28;20898;-60
2021/12/09 04:02:27;;;;;;;13.93;7.10;;;0.50;99.90;;;;;;5079004;28;20461;-54
2021/12/09 04:04:55;;;;;;;13.90;7.30;;;0.60;99.90;;;;;;5078950;28;20468;-60
2021/12/09 04:07:22;;;;;;;12.40;6.70;;;0.60;99.90;;;;;;5078898;28;20466;-59
2021/12/09 04:09:49;;;;;;;13.50;8.33;;;0.70;99.90;;;;;;5079506;28;20523;-58
2021/12/09 04:12:19;;;;;;;12.33;7.60;;;0.60;99.90;;;;;;5078086;28;20519;-60
2021/12/09 04:14:46;;;;;;;10.57;7.77;;;0.70;99.90;;;;;;5078462;28;20551;-58
2021/12/09 04:17:13;;;;;;;13.23;7.40;;;0.70;99.90;;;;;;5078405;28;20496;-58
2021/12/09 04:19:47;;;;;;;14.30;6.60;;;0.80;99.90;;;;;;5078250;28;20504;-58
2021/12/09 04:22:16;;;;;;;9.60;7.07;;;0.60;99.90;;;;;;5078427;28;20460;-61
2021/12/09 04:24:44;;;;;;;15.10;7.23;;;0.60;99.90;;;;;;5078584;28;20492;-61
2021/12/09 04:27:11;;;;;;;12.03;7.13;;;0.60;99.90;;;;;;5078572;28;20500;-60
2021/12/09 04:29:38;;;;;;;13.90;7.43;;;0.50;99.90;;;;;;5078956;28;20464;-61
2021/12/09 04:32:06;;;;;;;10.77;7.17;;;0.60;99.90;;;;;;5078106;28;20492;-61
2021/12/09 04:34:33;;;;;;;9.40;6.80;;;0.40;99.90;;;;;;5078762;28;20888;-61
2021/12/09 04:37:03;;;;;;;9.63;6.93;;;0.40;99.90;;;;;;5078383;28;20902;-61
2021/12/09 04:39:32;;;;;;;14.63;7.13;;;0.50;99.90;;;;;;5078304;28;20489;-60
2021/12/09 04:41:59;;;;;;;8.77;7.13;;;0.40;99.90;;;;;;5077336;28;20566;-61
2021/12/09 04:44:26;;;;;;;16.37;6.93;;;0.40;99.90;;;;;;5078563;28;20473;-61
2021/12/09 04:46:53;;;;;;;16.83;6.70;;;0.40;99.90;;;;;;5077507;28;20489;-60
2021/12/09 04:49:20;;;;;;;8.57;6.63;;;0.30;99.90;;;;;;5093756;28;20459;-56
2021/12/09 04:51:52;;;;;;;11.80;7.17;;;0.30;99.90;;;;;;5089411;28;20833;-59
2021/12/09 04:54:19;;;;;;;12.47;7.40;;;0.30;99.90;;;;;;5078083;28;20463;-60
2021/12/09 04:56:48;;;;;;;11.27;8.13;;;0.40;99.90;;;;;;5078072;28;20807;-59
2021/12/09 04:59:15;;;;;;;13.07;7.47;;;0.30;99.90;;;;;;5077400;28;20526;-58
2021/12/09 05:01:49;;;;;;;12.40;7.50;;;0.40;99.90;;;;;;5076466;28;20457;-59
2021/12/09 05:04:16;;;;;;;9.60;6.80;;;0.20;99.90;;;;;;5078228;28;20960;-59
2021/12/09 05:06:43;;;;;;;12.30;6.87;;;0.30;99.90;;;;;;5076797;28;20464;-58
2021/12/09 05:09:16;;;;;;;10.03;6.13;;;0.30;99.90;;;;;;5077699;28;20467;-59
2021/12/09 05:11:49;;;;;;;13.03;7.33;;;0.30;99.90;;;;;;5077515;28;20816;-60
2021/12/09 05:14:23;;;;;;;11.20;6.97;;;0.20;99.90;;;;;;5079026;28;20473;-60
2021/12/09 05:16:55;;;;;;;8.90;7.97;;;0.10;99.90;;;;;;5077405;28;20557;-60
2021/12/09 05:19:22;;;;;;;14.33;7.07;;;0.20;99.90;;;;;;5077721;28;20574;-61
2021/12/09 05:21:52;;;;;;;11.63;7.07;;;0.20;99.90;;;;;;5073185;28;20491;-59
2021/12/09 05:24:19;;;;;;;13.77;7.10;;;0.20;99.90;;;;;;5074757;28;20567;-61
2021/12/09 05:26:52;;;;;;;10.80;7.17;;;0.20;99.90;;;;;;5075253;28;20468;-60
2021/12/09 05:29:27;;;;;;;10.07;7.03;;;0.30;99.90;;;;;;5073627;28;20465;-57
2021/12/09 05:32:12;;;;;;;14.33;7.77;;;0.30;99.90;;;;;;5073122;28;20477;-58
2021/12/09 05:34:43;;;;;;;9.13;6.87;;;0.20;99.90;;;;;;5074360;28;20909;-55
2021/12/09 05:37:12;;;;;;;11.03;6.80;;;0.20;99.90;;;;;;5075023;28;20878;-58
2021/12/09 05:39:39;;;;;;;11.73;5.47;;;0.20;99.90;;;;;;5075969;28;20460;-57
2021/12/09 05:42:08;;;;;;;10.03;6.40;;;0.30;99.90;;;;;;5075342;28;20508;-60
2021/12/09 05:44:37;;;;;;;9.10;5.80;;;0.50;99.90;;;;;;5074714;28;20494;-58
2021/12/09 05:47:06;;;;;;;8.97;6.37;;;0.50;99.90;;;;;;5074297;28;20975;-60
2021/12/09 05:49:41;;;;;;;10.57;5.83;;;0.40;99.90;;;;;;5076018;28;20454;-59
2021/12/09 05:52:09;;;;;;;11.17;6.70;;;0.30;99.90;;;;;;5073134;28;20487;-59
2021/12/09 05:54:37;;;;;;;17.43;6.30;;;0.40;99.90;;;;;;5074617;28;20500;-61
2021/12/09 05:57:05;;;;;;;15.93;6.67;;;0.50;99.90;;;;;;5075881;28;20515;-61
2021/12/09 05:59:32;;;;;;;11.17;6.57;;;0.60;99.90;;;;;;5073887;28;20900;-61
2021/12/09 06:02:01;;;;;;;15.20;6.73;;;0.70;99.90;;;;;;5076103;28;20469;-61
2021/12/09 06:04:28;;;;;;;9.43;6.20;;;0.70;99.90;;;;;;5075264;28;20463;-61
2021/12/09 06:06:55;;;;;;;10.03;6.60;;;0.80;99.90;;;;;;5075558;28;20463;-61
2021/12/09 06:09:24;;;;;;;9.30;6.30;;;0.80;99.90;;;;;;5074869;28;20445;-61
2021/12/09 06:11:51;;;;;;;12.10;7.30;;;0.80;99.90;;;;;;5073137;28;20926;-61
2021/12/09 06:14:20;;;;;;;9.73;6.30;;;0.70;99.90;;;;;;5074751;28;20467;-61
2021/12/09 06:16:49;;;;;;;11.50;6.30;;;0.60;99.90;;;;;;5075720;28;20452;-60
2021/12/09 06:19:18;;;;;;;13.50;8.13;;;0.50;99.90;;;;;;5075440;28;20453;-59
2021/12/09 06:21:45;;;;;;;14.00;7.63;;;0.50;99.90;;;;;;5074537;28;20463;-54
2021/12/09 06:24:12;;;;;;;71.17;22.33;;;0.50;99.90;;;;;;5075003;28;20515;-59
2021/12/09 06:26:39;;;;;;;18.60;7.87;;;0.50;99.90;;;;;;5075353;28;20911;-60
2021/12/09 06:29:07;;;;;;;11.87;7.17;;;0.50;99.90;;;;;;5075653;28;20459;-57
2021/12/09 06:31:35;;;;;;;21.70;9.90;;;0.60;99.90;;;;;;5075476;28;20484;-59
2021/12/09 06:34:02;;;;;;;31.70;12.93;;;0.60;99.90;;;;;;5075195;28;20488;-58
2021/12/09 06:36:32;;;;;;;17.70;9.03;;;0.50;99.90;;;;;;5075309;28;20492;-53
2021/12/09 06:38:59;;;;;;;17.10;7.27;;;0.40;99.90;;;;;;5075236;28;20439;-56
2021/12/09 06:41:26;;;;;;;16.33;6.50;;;0.40;99.90;;;;;;5075015;28;20452;-57
2021/12/09 06:43:57;;;;;;;11.30;6.40;;;0.40;99.90;;;;;;5076146;28;20572;-57
2021/12/09 06:46:24;;;;;;;11.00;6.53;;;0.60;99.90;;;;;;5074695;28;20519;-58
2021/12/09 06:48:51;;;;;;;14.37;5.87;;;0.50;99.90;;;;;;5075018;28;20465;-60
2021/12/09 06:51:19;;;;;;;11.00;6.67;;;0.40;99.90;;;;;;5075758;28;20579;-58
2021/12/09 06:53:48;;;;;;;23.20;8.70;;;0.30;99.90;;;;;;5076566;28;20520;-59
2021/12/09 06:56:16;;;;;;;11.00;7.47;;;0.40;99.90;;;;;;5075295;28;20997;-60
2021/12/09 06:58:46;;;;;;;11.33;6.40;;;0.40;99.90;;;;;;5074842;28;20457;-60
2021/12/09 07:01:13;;;;;;;15.23;7.43;;;0.40;99.90;;;;;;5074892;28;20463;-59
2021/12/09 07:03:40;;;;;;;12.93;7.27;;;0.50;99.90;;;;;;5076055;28;20553;-60
2021/12/09 07:06:11;;;;;;;11.67;6.40;;;0.50;99.90;;;;;;5073919;28;20468;-61
2021/12/09 07:08:45;;;;;;;15.23;7.10;;;0.50;99.90;;;;;;5075601;28;20764;-59
2021/12/09 07:11:17;;;;;;;13.50;7.53;;;0.50;99.90;;;;;;5056926;28;20829;-60
2021/12/09 07:13:45;;;;;;;11.20;6.37;;;0.40;99.90;;;;;;5056543;28;20474;-59
2021/12/09 07:16:12;;;;;;;7.73;5.73;;;0.40;99.90;;;;;;5069946;28;20491;-55
2021/12/09 07:18:41;;;;;;;13.47;6.70;;;0.30;99.90;;;;;;5076498;28;20496;-58
2021/12/09 07:21:08;;;;;;;14.17;7.50;;;0.30;99.90;;;;;;5075901;28;20461;-59
2021/12/09 07:23:42;;;;;;;8.20;6.83;;;0.20;99.90;;;;;;5075959;28;20531;-59
2021/12/09 07:26:14;;;;;;;16.57;7.00;;;0.20;99.90;;;;;;5075718;28;20475;-59
2021/12/09 07:28:44;;;;;;;15.30;6.60;;;0.20;99.90;;;;;;5074410;28;20457;-59
2021/12/09 07:31:11;;;;;;;11.93;5.80;;;0.10;99.90;;;;;;5075285;28;20898;-57
2021/12/09 07:33:44;;;;;;;12.40;7.70;;;0.20;99.90;;;;;;5078935;28;20464;-59
2021/12/09 07:36:11;;;;;;;15.40;6.60;;;0.20;99.90;;;;;;5078749;28;20484;-59
2021/12/09 07:38:38;;;;;;;10.50;5.93;;;0.20;99.90;;;;;;5078241;28;20468;-60
2021/12/09 07:41:06;;;;;;;11.13;6.67;;;0.20;99.90;;;;;;5078721;28;20796;-56
2021/12/09 07:43:36;;;;;;;10.23;6.47;;;0.10;99.90;;;;;;5079628;28;20498;-59
2021/12/09 07:46:03;;;;;;;15.03;6.67;;;0.20;99.90;;;;;;5078097;28;20498;-60
2021/12/09 07:48:30;;;;;;;9.67;6.50;;;0.30;99.90;;;;;;5079597;28;20505;-59
2021/12/09 07:50:58;;;;;;;9.53;6.10;;;0.40;99.90;;;;;;5078978;28;20514;-60
2021/12/09 07:53:29;;;;;;;7.07;6.00;;;0.50;99.90;;;;;;5079214;28;20528;-58
2021/12/09 07:55:56;;;;;;;9.10;6.67;;;0.60;99.90;;;;;;5079971;28;20463;-59
2021/12/09 07:58:25;;;;;;;11.97;6.17;;;0.60;99.90;;;;;;5077952;28;20484;-60
2021/12/09 08:00:54;;;;;;;12.33;6.40;;;0.60;99.90;;;;;;5078726;28;20463;-61
2021/12/09 08:03:21;;;;;;;11.73;6.30;;;0.60;99.90;;;;;;5079738;28;20507;-61
2021/12/09 08:05:56;;;;;;;15.57;6.73;;;0.70;99.90;;;;;;5078508;28;20534;-61
2021/12/09 08:08:27;;;;;;;11.80;7.20;;;0.70;99.90;;;;;;5079379;28;20488;-61
2021/12/09 08:10:54;;;;;;;16.97;6.83;;;0.80;99.90;;;;;;5078177;28;20461;-61
2021/12/09 08:13:23;;;;;;;14.20;7.57;;;0.90;99.90;;;;;;5079398;28;20530;-61
2021/12/09 08:15:53;;;;;;;10.13;6.30;;;1.00;99.90;;;;;;5078685;28;20465;-61
2021/12/09 08:18:31;;;;;;;9.97;6.47;;;1.20;99.90;;;;;;5079551;28;20475;-61
2021/12/09 08:21:00;;;;;;;13.77;7.27;;;1.30;99.90;;;;;;5079289;28;20734;-61
2021/12/09 08:23:27;;;;;;;13.20;6.90;;;1.30;99.90;;;;;;5077927;28;20457;-60
2021/12/09 08:25:58;;;;;;;11.13;7.13;;;1.30;99.90;;;;;;5078555;28;20469;-61
2021/12/09 08:28:27;;;;;;;19.63;7.40;;;1.40;99.90;;;;;;5078231;28;20501;-60
2021/12/09 08:30:54;;;;;;;10.23;6.17;;;1.50;99.90;;;;;;5078813;28;20461;-58
2021/12/09 08:33:27;;;;;;;9.07;6.23;;;1.60;99.90;;;;;;5077300;28;20542;-61
2021/12/09 08:35:54;;;;;;;12.50;6.87;;;1.60;99.90;;;;;;5078353;28;20804;-55
2021/12/09 08:38:22;;;;;;;11.23;6.30;;;1.70;99.90;;;;;;5078266;28;20505;-60
2021/12/09 08:40:50;;;;;;;10.77;6.00;;;1.80;99.90;;;;;;5079041;28;20505;-60
2021/12/09 08:43:19;;;;;;;14.20;7.70;;;1.90;99.90;;;;;;5075712;28;20907;-60
2021/12/09 08:45:47;;;;;;;10.47;7.17;;;2.10;99.90;;;;;;5078072;28;20464;-60
2021/12/09 08:48:14;;;;;;;12.20;6.77;;;2.30;99.90;;;;;;5084521;28;20541;-58
2021/12/09 08:50:44;;;;;;;13.37;6.27;;;2.40;99.90;;;;;;5077622;28;20489;-60
2021/12/09 08:53:16;;;;;;;9.53;5.70;;;2.60;99.90;;;;;;5077453;28;20493;-58
2021/12/09 08:55:43;;;;;;;12.80;6.60;;;2.90;99.90;;;;;;5078485;28;20873;-59
2021/12/09 08:58:11;;;;;;;11.20;6.60;;;3.10;99.90;;;;;;5078732;28;20492;-60
2021/12/09 09:00:38;;;;;;;11.00;5.63;;;3.30;99.90;;;;;;5078319;28;20526;-61
2021/12/09 09:03:06;;;;;;;14.43;6.70;;;3.50;1.00;;;;;;5076978;28;20457;-61
2021/12/09 09:05:35;;;;;;;8.37;5.50;;;3.40;99.90;;;;;;5077473;28;20511;-61
2021/12/09 09:08:07;;;;;;;9.37;5.50;;;3.40;1.00;;;;;;5078070;28;20954;-63
2021/12/09 09:10:36;;;;;;;9.47;5.50;;;3.50;1.00;;;;;;5078446;28;20461;-63
2021/12/09 09:13:04;;;;;;;10.80;5.60;;;3.50;99.90;;;;;;5076665;28;20493;-63
2021/12/09 09:15:32;;;;;;;10.03;6.43;;;3.50;1.00;;;;;;5077448;28;20465;-64
2021/12/09 09:17:59;;;;;;;9.80;6.37;;;3.50;1.00;;;;;;5077579;28;20957;-64
2021/12/09 09:20:30;;;;;;;11.37;5.63;;;3.50;98.60;;;;;;5078176;28;20523;-64
2021/12/09 09:22:57;;;;;;;9.73;5.63;;;3.40;1.00;;;;;;5077857;28;20465;-64
2021/12/09 09:25:29;;;;;;;8.40;5.70;;;3.40;1.00;;;;;;5077114;28;20485;-63
2021/12/09 09:27:57;;;;;;;16.40;6.03;;;3.50;1.00;;;;;;5078389;28;20492;-63
2021/12/09 09:30:25;;;;;;;8.87;6.23;;;3.70;1.00;;;;;;5076654;28;20539;-64
2021/12/09 09:32:55;;;;;;;8.23;5.00;;;3.70;1.00;;;;;;5077620;28;20475;-64
2021/12/09 09:35:22;;;;;;;13.07;6.13;;;3.70;99.90;;;;;;5076937;28;20516;-64
2021/12/09 09:37:50;;;;;;;10.07;5.73;;;3.60;99.90;;;;;;5077411;28;20519;-64
2021/12/09 09:40:27;;;;;;;8.17;6.00;;;3.50;98.30;;;;;;5061929;28;20771;-64
2021/12/09 09:43:03;;;;;;;10.43;5.97;;;3.50;88.50;;;;;;5076664;28;20461;-64
2021/12/09 09:45:34;;;;;;;10.53;6.47;;;3.40;99.90;;;;;;5077413;28;20461;-64
2021/12/09 09:48:07;;;;;;;10.83;6.23;;;3.40;99.90;;;;;;5081307;28;20534;-64
2021/12/09 09:50:36;;;;;;;11.07;6.33;;;3.40;99.90;;;;;;5077517;28;20485;-64
2021/12/09 09:53:03;;;;;;;12.27;6.33;;;3.30;99.90;;;;;;5075857;28;20496;-64
2021/12/09 09:55:30;;;;;;;13.37;6.30;;;3.40;99.90;;;;;;5076724;28;20531;-64
2021/12/09 09:57:58;;;;;;;9.50;6.00;;;3.40;45.40;;;;;;5077279;28;20908;-64
2021/12/09 10:00:27;;;;;;;12.17;6.23;;;3.40;59.40;;;;;;5076011;28;20908;-64
2021/12/09 10:02:54;;;;;;;12.53;6.30;;;3.60;1.00;;;;;;5076464;28;20830;-64
2021/12/09 10:05:28;;;;;;;13.13;6.27;;;3.60;1.00;;;;;;5076453;28;20457;-64
2021/12/09 10:07:56;;;;;;;10.70;7.23;;;3.50;1.00;;;;;;5076612;28;20929;-64
2021/12/09 10:10:24;;;;;;;10.23;6.17;;;3.50;1.00;;;;;;5076745;28;20496;-64
2021/12/09 10:13:01;;;;;;;10.33;6.77;;;3.50;1.00;;;;;;5076276;28;20560;-64
2021/12/09 10:15:38;;;;;;;7.93;5.77;;;3.50;1.00;;;;;;5076900;28;20780;-64
2021/12/09 10:18:06;;;;;;;11.77;6.03;;;3.60;1.00;;;;;;5075831;28;20514;-64
2021/12/09 10:20:52;;;;;;;9.10;6.37;;;3.70;1.00;;;;;;5076377;28;20465;-64
2021/12/09 10:23:31;;;;;;;10.13;7.50;;;3.80;99.90;;;;;;5075528;28;20450;-64
2021/12/09 10:26:21;;;;;;;8.83;6.50;;;3.80;99.90;;;;;;5073397;28;20473;-63
2021/12/09 10:28:55;;;;;;;8.17;6.50;;;3.90;99.90;;;;;;5068459;28;20461;-64
2021/12/09 10:31:27;;;;;;;7.53;6.73;;;3.90;99.90;;;;;;5076696;28;20458;-64
2021/12/09 10:34:01;;;;;;;15.87;7.30;;;3.80;99.90;;;;;;5076339;28;20490;-64
2021/12/09 10:36:56;;;;;;;9.37;6.80;;;3.70;99.90;;;;;;5076685;28;20523;-64
2021/12/09 10:39:39;;;;;;;11.63;6.47;;;3.60;99.90;;;;;;5063771;28;20769;-64
2021/12/09 10:42:10;;;;;;;9.50;6.90;;;3.50;99.90;;;;;;5076751;28;20819;-64
2021/12/09 10:44:46;;;;;;;12.83;7.63;;;3.50;99.90;;;;;;5077049;28;20489;-64
2021/12/09 10:47:21;;;;;;;10.23;6.50;;;3.70;1.00;;;;;;5074821;28;20549;-63
2021/12/09 10:50:06;;;;;;;9.20;6.77;;;4.00;99.90;;;;;;5075656;28;20514;-63
2021/12/09 10:52:39;;;;;;;14.30;6.33;;;4.20;99.90;;;;;;5076714;28;20492;-63
2021/12/09 10:55:22;;;;;;;11.03;7.67;;;4.20;99.90;;;;;;5075877;28;20907;-64
2021/12/09 10:58:01;;;;;;;8.80;6.83;;;4.10;99.90;;;;;;5073157;28;20519;-64
2021/12/09 11:00:38;;;;;;;11.23;6.17;;;4.10;99.90;;;;;;5075769;28;20465;-63
2021/12/09 11:03:18;;;;;;;16.40;7.20;;;4.00;99.90;;;;;;5075424;28;20461;-64
2021/12/09 11:05:49;;;;;;;10.50;6.37;;;4.20;99.90;;;;;;5076310;28;20497;-64
2021/12/09 11:08:28;;;;;;;8.30;6.20;;;4.00;99.90;;;;;;5078550;28;20757;-63
2021/12/09 11:11:04;;;;;;;8.50;7.33;;;4.10;99.90;;;;;;5068968;28;20467;-63
2021/12/09 11:13:51;;;;;;;9.33;6.33;;;4.30;99.90;;;;;;5080450;28;20520;-63
2021/12/09 11:16:26;;;;;;;9.43;7.20;;;4.20;99.90;;;;;;5080836;28;20885;-63
2021/12/09 11:19:00;;;;;;;9.70;6.83;;;4.30;99.90;;;;;;5079108;28;20530;-63
2021/12/09 11:21:32;;;;;;;8.63;6.37;;;4.50;99.90;;;;;;5079700;28;20461;-63
2021/12/09 11:24:03;;;;;;;10.57;7.67;;;4.40;94.00;;;;;;5079673;28;20461;-63
2021/12/09 11:26:53;;;;;;;8.63;6.93;;;4.40;91.00;;;;;;5078849;28;20467;-63
2021/12/09 11:29:24;;;;;;;9.33;7.00;;;4.30;97.20;;;;;;5079398;28;20957;-63
2021/12/09 11:32:00;;;;;;;12.23;7.87;;;4.20;99.90;;;;;;5079011;28;20548;-64
2021/12/09 11:34:37;;;;;;;12.47;7.13;;;4.20;99.90;;;;;;5080170;28;20485;-63
2021/12/09 11:37:33;;;;;;;10.87;7.70;;;4.00;99.90;;;;;;5078899;28;20545;-64
2021/12/09 11:40:00;;;;;;;11.73;6.90;;;4.00;99.90;;;;;;5064417;28;20469;-64
2021/12/09 11:42:35;;;;;;;10.13;6.63;;;4.00;99.90;;;;;;5078693;28;20461;-64
2021/12/09 11:45:03;;;;;;;19.93;7.73;;;4.20;99.90;;;;;;5078871;28;20465;-64
2021/12/09 11:47:34;;;;;;;10.37;6.93;;;4.30;99.90;;;;;;5078746;28;20489;-64
2021/12/09 11:50:01;;;;;;;12.90;7.30;;;4.40;99.90;;;;;;5073394;28;20859;-64
2021/12/09 11:52:33;;;;;;;19.10;7.80;;;4.40;99.90;;;;;;5071230;28;20489;-64
2021/12/09 11:55:05;;;;;;;9.27;6.30;;;4.40;99.90;;;;;;5077047;28;20446;-64
2021/12/09 11:57:39;;;;;;;6.83;5.87;;;4.30;99.90;;;;;;5077795;28;20906;-65
2021/12/09 12:06:50;;;;;;;11.50;6.60;;;4.30;99.90;;;;;;5076748;28;20852;-64
2021/12/09 12:12:35;;;;;;;12.20;7.03;;;4.10;99.90;;;;;;5077786;28;20665;-64
2021/12/09 12:15:32;;;;;;;10.23;6.60;;;4.20;99.90;;;;;;5076763;28;20449;-64
2021/12/09 12:18:25;;;;;;;10.33;6.63;;;4.10;99.90;;;;;;5077747;28;20465;-64
2021/12/09 12:21:04;;;;;;;10.17;6.80;;;4.10;99.90;;;;;;5075928;28;20903;-64
2021/12/09 12:23:41;;;;;;;14.33;7.83;;;4.20;99.90;;;;;;5075886;28;20746;-64
2021/12/09 12:26:45;;;;;;;8.90;6.13;;;4.30;99.90;;;;;;5076616;28;20468;-62
2021/12/09 12:29:41;;;;;;;10.60;6.13;;;4.30;99.90;;;;;;5066410;28;20511;-62
2021/12/09 12:38:05;;;;;;;12.60;6.30;;;4.30;99.90;;;;;;5058900;28;20455;-62
2021/12/09 12:40:50;;;;;;;14.03;6.40;;;4.40;99.90;;;;;;5072342;28;20752;-62
2021/12/09 12:43:25;;;;;;;9.17;7.00;;;4.40;99.90;;;;;;5077345;28;20458;-62
2021/12/09 12:46:09;;;;;;;12.10;6.50;;;4.50;99.90;;;;;;5078177;28;20857;-62
2021/12/09 12:51:28;;;;;;;8.20;6.13;;;4.40;99.90;;;;;;5061032;28;20512;-62
2021/12/09 12:53:57;;;;;;;10.77;6.37;;;4.50;99.90;;;;;;5076095;28;20923;-62
2021/12/09 12:56:33;;;;;;;12.60;6.47;;;4.40;99.90;;;;;;5073061;28;20465;-62
2021/12/09 12:59:24;;;;;;;11.40;6.23;;;4.40;99.90;;;;;;5075681;28;20490;-63
2021/12/09 13:02:50;;;;;;;7.13;5.80;;;4.40;99.90;;;;;;5074117;28;20900;-63
2021/12/09 13:05:39;;;;;;;9.13;6.23;;;4.30;99.90;;;;;;5074618;28;20468;-62
2021/12/09 13:11:02;;;;;;;8.10;5.83;;;4.20;99.90;;;;;;5070761;28;20433;-62
2021/12/09 13:13:42;;;;;;;10.40;6.10;;;4.30;99.90;;;;;;5075512;28;20493;-63
2021/12/09 13:16:16;;;;;;;7.40;5.17;;;4.20;99.90;;;;;;5071845;28;20472;-61
2021/12/09 13:19:03;;;;;;;8.60;5.47;;;4.30;99.90;;;;;;5074336;28;20465;-60
2021/12/09 13:21:38;;;;;;;12.43;6.23;;;4.30;99.90;;;;;;5073504;28;20557;-62
2021/12/09 13:24:45;;;;;;;13.97;6.30;;;4.40;99.90;;;;;;5074572;28;20902;-61
2021/12/09 13:33:40;;;;;;;9.83;5.77;;;4.30;99.90;;;;;;5074219;28;20768;-63
2021/12/09 13:39:15;;;;;;;10.60;6.80;;;4.10;1.00;;;;;;5058528;28;20407;-63
2021/12/09 13:47:29;;;;;;;9.70;5.60;;;3.90;99.90;;;;;;5075232;28;20495;-63